createdAt,value
2019-04-06T00:01:25.022Z,77.63
2019-04-06T00:03:53.465Z,78.03
2019-04-06T00:06:22.369Z,83.13
2019-04-06T00:08:50.968Z,85.30
2019-04-06T00:11:19.329Z,74.87
2019-04-06T00:13:47.580Z,89.33
2019-04-06T00:16:15.730Z,82.10
2019-04-06T00:18:43.682Z,85.40
2019-04-06T00:21:12.098Z,86.03
2019-04-06T00:23:40.328Z,85.63
2019-04-06T00:26:08.901Z,89.57
2019-04-06T00:28:36.832Z,97.00
2019-04-06T00:31:42.910Z,91.70
2019-04-06T00:34:10.063Z,94.93
2019-04-06T00:36:38.009Z,99.30
2019-04-06T00:39:05.498Z,88.10
2019-04-06T00:41:32.911Z,77.70
2019-04-06T00:44:00.700Z,97.10
2019-04-06T00:46:27.954Z,93.97
2019-04-06T00:48:58.231Z,91.90
2019-04-06T00:51:25.853Z,82.47
2019-04-06T00:53:53.263Z,82.53
2019-04-06T00:56:20.929Z,99.10
2019-04-06T00:58:48.222Z,92.67
2019-04-06T01:01:16.057Z,80.37
2019-04-06T01:03:43.218Z,89.63
2019-04-06T01:06:10.595Z,94.97
2019-04-06T01:08:38.126Z,78.63
2019-04-06T01:11:05.141Z,88.53
2019-04-06T01:13:33.165Z,95.90
2019-04-06T01:16:00.529Z,101.77
2019-04-06T01:18:28.191Z,92.27
2019-04-06T01:20:55.735Z,91.77
2019-04-06T01:23:22.998Z,90.20
2019-04-06T01:25:51.152Z,90.67
2019-04-06T01:28:19.844Z,89.57
2019-04-06T01:30:47.433Z,100.70
2019-04-06T01:33:16.287Z,84.87
2019-04-06T01:35:44.422Z,92.80
2019-04-06T01:38:12.421Z,90.23
2019-04-06T01:40:40.553Z,88.83
2019-04-06T01:43:08.573Z,79.53
2019-04-06T01:45:36.502Z,92.40
2019-04-06T01:48:04.534Z,90.57
2019-04-06T01:50:32.449Z,75.20
2019-04-06T01:53:00.476Z,87.67
2019-04-06T01:55:28.398Z,82.43
2019-04-06T01:57:56.381Z,88.40
2019-04-06T02:00:24.762Z,91.53
2019-04-06T02:02:52.883Z,76.83
2019-04-06T02:05:22.781Z,88.30
2019-04-06T02:07:50.896Z,73.60
2019-04-06T02:10:19.121Z,82.03
2019-04-06T02:12:47.250Z,86.13
2019-04-06T02:15:15.389Z,82.43
2019-04-06T02:17:43.281Z,92.17
2019-04-06T02:20:11.659Z,70.17
2019-04-06T02:22:40.212Z,80.97
2019-04-06T02:25:08.467Z,81.10
2019-04-06T02:27:36.730Z,88.40
2019-04-06T02:30:27.382Z,75.90
2019-04-06T02:33:01.394Z,77.10
2019-04-06T02:35:52.070Z,77.27
2019-04-06T02:38:26.025Z,77.63
2019-04-06T02:41:00.078Z,81.93
2019-04-06T02:43:30.471Z,82.73
2019-04-06T02:45:58.485Z,72.20
2019-04-06T02:48:26.515Z,92.13
2019-04-06T02:50:54.521Z,78.07
2019-04-06T02:53:22.429Z,87.00
2019-04-06T02:55:50.506Z,76.03
2019-04-06T02:58:18.629Z,90.67
2019-04-06T03:00:46.781Z,86.30
2019-04-06T03:03:16.147Z,95.00
2019-04-06T03:05:45.357Z,95.73
2019-04-06T03:08:13.971Z,111.57
2019-04-06T03:10:42.606Z,106.40
2019-04-06T03:13:11.681Z,106.47
2019-04-06T03:15:40.541Z,110.23
2019-04-06T03:18:09.077Z,102.17
2019-04-06T03:20:37.833Z,112.97
2019-04-06T03:23:06.210Z,115.53
2019-04-06T03:25:34.515Z,104.43
2019-04-06T03:28:03.055Z,104.13
2019-04-06T03:30:31.301Z,116.07
2019-04-06T03:32:59.450Z,104.80
2019-04-06T03:35:27.551Z,111.60
2019-04-06T03:37:55.712Z,103.27
2019-04-06T03:40:23.846Z,131.13
2019-04-06T03:42:52.063Z,113.27
2019-04-06T03:45:20.270Z,103.60
2019-04-06T03:47:48.364Z,121.13
2019-04-06T03:50:16.326Z,113.07
2019-04-06T03:52:45.171Z,114.03
2019-04-06T03:55:13.257Z,117.13
2019-04-06T03:57:41.985Z,124.37
2019-04-06T04:00:10.795Z,121.40
2019-04-06T04:02:39.734Z,107.30
2019-04-06T04:05:08.574Z,106.47
2019-04-06T04:07:37.963Z,124.83
2019-04-06T04:10:06.598Z,109.77
2019-04-06T04:12:35.076Z,115.70
2019-04-06T04:15:04.034Z,96.77
2019-04-06T04:17:32.243Z,116.73
2019-04-06T04:20:00.922Z,97.43
2019-04-06T04:22:29.214Z,99.40
2019-04-06T04:24:57.734Z,118.23
2019-04-06T04:27:29.635Z,104.53
2019-04-06T04:29:56.237Z,106.47
2019-04-06T04:32:24.704Z,96.30
2019-04-06T04:34:52.775Z,120.43
2019-04-06T04:37:20.937Z,89.03
2019-04-06T04:39:48.954Z,99.20
2019-04-06T04:42:17.260Z,101.53
2019-04-06T04:44:45.948Z,99.23
2019-04-06T04:47:14.115Z,97.73
2019-04-06T04:49:42.395Z,93.23
2019-04-06T04:52:10.534Z,97.60
2019-04-06T04:54:39.181Z,97.50
2019-04-06T04:57:07.809Z,107.17
2019-04-06T04:59:36.414Z,91.90
2019-04-06T05:02:04.445Z,99.47
2019-04-06T05:04:33.441Z,97.37
2019-04-06T05:07:02.145Z,91.53
2019-04-06T05:09:30.565Z,89.43
2019-04-06T05:11:59.128Z,97.13
2019-04-06T05:15:04.756Z,100.13
2019-04-06T05:17:33.252Z,87.73
2019-04-06T05:20:01.642Z,87.07
2019-04-06T05:22:30.379Z,82.03
2019-04-06T05:24:58.966Z,88.53
2019-04-06T05:27:27.092Z,93.10
2019-04-06T05:29:55.883Z,93.60
2019-04-06T05:32:24.483Z,94.93
2019-04-06T05:34:52.925Z,92.63
2019-04-06T05:37:21.455Z,97.00
2019-04-06T05:39:49.967Z,86.53
2019-04-06T05:42:19.010Z,92.03
2019-04-06T05:44:47.243Z,94.67
2019-04-06T05:47:15.697Z,84.43
2019-04-06T05:49:44.155Z,85.83
2019-04-06T05:52:13.121Z,92.90
2019-04-06T05:54:41.537Z,83.50
2019-04-06T05:57:10.526Z,89.83
2019-04-06T05:59:40.955Z,81.50
2019-04-06T06:02:09.947Z,93.30
2019-04-06T06:04:40.607Z,90.80
2019-04-06T06:07:09.388Z,87.53
2019-04-06T06:09:37.547Z,82.10
2019-04-06T06:12:06.404Z,100.70
2019-04-06T06:14:35.127Z,81.43
2019-04-06T06:17:03.348Z,86.50
2019-04-06T06:19:31.929Z,91.00
2019-04-06T06:22:00.737Z,85.77
2019-04-06T06:24:28.909Z,82.37
2019-04-06T06:26:57.111Z,86.83
2019-04-06T06:29:25.417Z,82.10
2019-04-06T06:31:53.990Z,76.30
2019-04-06T06:34:22.146Z,82.03
2019-04-06T06:36:50.558Z,82.67
2019-04-06T06:39:18.811Z,82.10
2019-04-06T06:41:47.414Z,83.70
2019-04-06T06:44:15.937Z,86.80
2019-04-06T06:46:44.194Z,73.20
2019-04-06T06:49:12.358Z,80.20
2019-04-06T06:51:40.922Z,72.80
2019-04-06T06:54:08.889Z,83.67
2019-04-06T06:56:37.329Z,77.80
2019-04-06T06:59:05.934Z,70.43
2019-04-06T07:01:34.218Z,75.00
2019-04-06T07:04:02.523Z,79.47
2019-04-06T07:06:31.065Z,72.70
2019-04-06T07:08:59.564Z,71.83
2019-04-06T07:11:27.830Z,71.33
2019-04-06T07:13:57.465Z,74.43
2019-04-06T07:16:26.080Z,71.37
2019-04-06T07:18:54.094Z,83.67
2019-04-06T07:21:22.394Z,70.47
2019-04-06T07:23:51.130Z,73.17
2019-04-06T07:26:19.813Z,73.70
2019-04-06T07:28:47.981Z,74.73
2019-04-06T07:31:16.594Z,69.47
2019-04-06T07:33:45.081Z,75.90
2019-04-06T07:36:13.384Z,72.97
2019-04-06T07:38:41.525Z,69.53
2019-04-06T07:41:10.005Z,77.90
2019-04-06T07:43:38.390Z,84.07
2019-04-06T07:46:06.294Z,72.73
2019-04-06T07:48:34.416Z,67.87
2019-04-06T07:51:03.303Z,72.37
2019-04-06T07:53:31.633Z,74.80
2019-04-06T07:55:59.597Z,76.47
2019-04-06T07:58:30.768Z,79.57
2019-04-06T08:00:58.806Z,65.17
2019-04-06T08:03:27.119Z,73.37
2019-04-06T08:05:55.468Z,64.27
2019-04-06T08:08:23.762Z,78.47
2019-04-06T08:10:51.966Z,69.40
2019-04-06T08:13:19.901Z,58.80
2019-04-06T08:15:49.358Z,59.73
2019-04-06T08:18:17.284Z,62.37
2019-04-06T08:20:45.530Z,60.80
2019-04-06T08:23:13.590Z,56.70
2019-04-06T08:25:41.808Z,55.60
2019-04-06T08:28:11.629Z,58.93
2019-04-06T08:30:46.347Z,63.47
2019-04-06T08:33:10.090Z,63.20
2019-04-06T08:35:38.004Z,53.00
2019-04-06T08:38:06.035Z,51.43
2019-04-06T08:40:39.035Z,57.73
2019-04-06T08:43:07.484Z,55.73
2019-04-06T08:45:36.639Z,58.10
2019-04-06T08:48:04.799Z,55.90
2019-04-06T08:50:32.963Z,53.70
2019-04-06T08:53:05.035Z,54.73
2019-04-06T08:55:33.649Z,55.43
2019-04-06T08:58:01.625Z,53.40
2019-04-06T09:00:30.141Z,55.43
2019-04-06T09:02:58.453Z,51.83
2019-04-06T09:05:31.800Z,53.10
2019-04-06T09:08:00.446Z,49.03
2019-04-06T09:10:28.608Z,56.17
2019-04-06T09:12:56.506Z,55.47
2019-04-06T09:15:24.514Z,50.77
2019-04-06T09:17:52.878Z,52.60
2019-04-06T09:20:22.543Z,52.13
2019-04-06T09:22:50.542Z,48.63
2019-04-06T09:25:18.534Z,58.00
2019-04-06T09:27:46.662Z,49.20
2019-04-06T09:30:14.965Z,49.53
2019-04-06T09:32:42.862Z,45.53
2019-04-06T09:35:11.775Z,49.00
2019-04-06T09:37:40.271Z,52.23
2019-04-06T09:40:08.646Z,52.57
2019-04-06T09:42:36.793Z,60.23
2019-04-06T09:45:31.091Z,55.47
2019-04-06T09:48:14.595Z,52.20
2019-04-06T09:51:14.417Z,48.70
2019-04-06T09:54:06.232Z,53.37
2019-04-06T09:56:53.914Z,50.90
2019-04-06T09:59:48.459Z,54.57
2019-04-06T10:02:35.693Z,48.73
2019-04-06T10:05:16.681Z,45.77
2019-04-06T10:07:53.505Z,43.10
2019-04-06T10:10:32.094Z,45.97
2019-04-06T10:13:08.218Z,43.47
2019-04-06T10:16:02.078Z,45.77
2019-04-06T10:18:36.062Z,53.27
2019-04-06T10:21:22.853Z,44.37
2019-04-06T10:23:58.037Z,41.77
2019-04-06T10:26:37.135Z,43.07
2019-04-06T10:29:48.019Z,41.10
2019-04-06T10:32:20.385Z,43.03
2019-04-06T10:35:00.490Z,41.73
2019-04-06T10:37:56.358Z,40.93
2019-04-06T10:40:56.561Z,43.57
2019-04-06T10:43:50.804Z,41.70
2019-04-06T10:46:26.020Z,41.27
2019-04-06T10:49:15.689Z,42.00
2019-04-06T10:52:05.639Z,46.43
2019-04-06T10:55:03.416Z,40.90
2019-04-06T10:57:54.118Z,40.87
2019-04-06T11:00:40.009Z,41.00
2019-04-06T11:03:19.731Z,44.07
2019-04-06T11:06:01.787Z,47.83
2019-04-06T11:08:44.665Z,41.13
2019-04-06T11:11:29.926Z,39.40
2019-04-06T11:14:25.611Z,38.43
2019-04-06T11:17:15.117Z,38.00
2019-04-06T11:20:10.490Z,43.30
2019-04-06T11:23:04.452Z,39.57
2019-04-06T11:25:57.224Z,40.03
2019-04-06T11:28:32.857Z,41.23
2019-04-06T11:31:22.453Z,43.23
2019-04-06T11:34:10.417Z,42.57
2019-04-06T11:36:44.364Z,36.73
2019-04-06T11:39:43.768Z,41.37
2019-04-06T11:42:28.676Z,39.23
2019-04-06T11:45:05.925Z,36.50
2019-04-06T11:47:48.854Z,39.67
2019-04-06T11:50:22.892Z,41.83
2019-04-06T11:53:01.600Z,42.00
2019-04-06T11:55:39.424Z,42.50
2019-04-06T11:58:36.058Z,42.40
2019-04-06T12:01:32.447Z,40.87
2019-04-06T12:04:12.530Z,43.17
2019-04-06T12:07:00.528Z,52.33
2019-04-06T12:10:06.154Z,53.47
2019-04-06T12:13:00.036Z,49.70
2019-04-06T12:16:02.240Z,51.97
2019-04-06T12:18:48.148Z,52.60
2019-04-06T12:21:35.346Z,48.50
2019-04-06T12:24:14.969Z,53.10
2019-04-06T12:27:08.687Z,45.57
2019-04-06T12:30:04.677Z,52.83
2019-04-06T12:32:51.854Z,53.73
2019-04-06T12:35:42.850Z,53.10
2019-04-06T12:38:36.423Z,55.90
2019-04-06T12:41:22.680Z,50.50
2019-04-06T12:44:00.014Z,48.90
2019-04-06T12:46:43.144Z,53.50
2019-04-06T12:49:30.254Z,49.53
2019-04-06T12:52:15.828Z,45.57
2019-04-06T12:55:02.685Z,46.43
2019-04-06T12:57:52.273Z,56.63
2019-04-06T13:00:49.597Z,49.93
2019-04-06T13:03:29.324Z,52.73
2019-04-06T13:06:26.582Z,49.43
2019-04-06T13:09:24.061Z,48.87
2019-04-06T13:12:04.418Z,48.27
2019-04-06T13:14:43.217Z,44.97
2019-04-06T13:17:27.691Z,46.23
2019-04-06T13:20:15.169Z,45.20
2019-04-06T13:23:08.374Z,45.90
2019-04-06T13:25:59.130Z,47.17
2019-04-06T13:28:36.651Z,50.37
2019-04-06T13:31:18.169Z,47.17
2019-04-06T13:34:02.098Z,46.63
2019-04-06T13:36:55.704Z,47.40
2019-04-06T13:39:32.146Z,48.20
2019-04-06T13:42:23.177Z,54.17
2019-04-06T13:45:05.251Z,47.10
2019-04-06T13:47:44.591Z,48.50
2019-04-06T13:50:49.375Z,49.50
2019-04-06T13:53:45.271Z,51.90
2019-04-06T13:56:45.589Z,50.77
2019-04-06T13:59:46.855Z,51.20
2019-04-06T14:02:31.251Z,50.33
2019-04-06T14:05:14.102Z,52.77
2019-04-06T14:08:00.997Z,49.80
2019-04-06T14:10:37.863Z,47.90
2019-04-06T14:13:24.767Z,48.10
2019-04-06T14:16:07.813Z,44.53
2019-04-06T14:18:56.258Z,45.07
2019-04-06T14:21:41.097Z,43.17
2019-04-06T14:24:20.927Z,45.93
2019-04-06T14:27:09.245Z,50.17
2019-04-06T14:30:09.271Z,48.27
2019-04-06T14:32:52.261Z,49.03
2019-04-06T14:35:39.283Z,49.90
2019-04-06T14:38:27.085Z,46.23
2019-04-06T14:41:03.459Z,52.23
2019-04-06T14:43:53.147Z,47.40
2019-04-06T14:46:47.474Z,51.77
2019-04-06T14:49:40.996Z,43.67
2019-04-06T14:52:26.492Z,47.93
2019-04-06T14:55:15.885Z,47.47
2019-04-06T14:57:55.606Z,46.83
2019-04-06T15:00:41.434Z,47.20
2019-04-06T15:03:40.344Z,48.80
2019-04-06T15:06:21.197Z,54.73
2019-04-06T15:09:06.429Z,49.53
2019-04-06T15:11:42.858Z,53.10
2019-04-06T15:14:38.179Z,50.70
2019-04-06T15:17:37.980Z,46.93
2019-04-06T15:20:16.271Z,46.83
2019-04-06T15:23:21.130Z,43.70
2019-04-06T15:25:57.968Z,48.83
2019-04-06T15:28:51.833Z,49.97
2019-04-06T15:31:48.453Z,48.37
2019-04-06T15:34:28.771Z,48.07
2019-04-06T15:37:07.766Z,48.90
2019-04-06T15:39:52.874Z,45.57
2019-04-06T15:42:25.481Z,45.33
2019-04-06T15:45:15.750Z,52.13
2019-04-06T15:48:02.715Z,45.33
2019-04-06T15:50:50.493Z,43.60
2019-04-06T15:53:37.533Z,47.17
2019-04-06T15:56:11.393Z,44.13
2019-04-06T15:59:04.969Z,43.20
2019-04-06T16:02:00.150Z,42.93
2019-04-06T16:04:29.118Z,42.90
2019-04-06T16:07:06.185Z,47.97
2019-04-06T16:10:03.395Z,46.10
2019-04-06T16:12:47.676Z,49.70
2019-04-06T16:15:21.662Z,44.37
2019-04-06T16:18:09.864Z,41.70
2019-04-06T16:21:10.276Z,46.10
2019-04-06T16:24:03.070Z,41.50
2019-04-06T16:26:39.435Z,48.00
2019-04-06T16:29:26.349Z,44.93
2019-04-06T16:32:16.554Z,41.57
2019-04-06T16:34:57.869Z,38.23
2019-04-06T16:37:35.290Z,43.07
2019-04-06T16:40:27.161Z,42.80
2019-04-06T16:43:17.774Z,41.73
2019-04-06T16:46:08.753Z,41.90
2019-04-06T16:48:59.584Z,41.90
2019-04-06T16:51:43.104Z,42.90
2019-04-06T16:54:21.453Z,39.50
2019-04-06T16:57:15.383Z,41.50
2019-04-06T16:59:52.361Z,40.70
2019-04-06T17:02:34.414Z,38.80
2019-04-06T17:05:10.135Z,44.70
2019-04-06T17:08:09.811Z,40.90
2019-04-06T17:10:47.259Z,41.90
2019-04-06T17:13:40.829Z,44.67
2019-04-06T17:16:27.217Z,41.73
2019-04-06T17:19:03.218Z,42.77
2019-04-06T17:21:43.534Z,44.77
2019-04-06T17:24:28.295Z,47.00
2019-04-06T17:27:16.206Z,51.13
2019-04-06T17:30:10.010Z,43.00
2019-04-06T17:33:12.654Z,48.43
2019-04-06T17:35:47.354Z,44.87
2019-04-06T17:38:21.245Z,38.90
2019-04-06T17:40:58.252Z,46.20
2019-04-06T17:44:02.894Z,47.20
2019-04-06T17:46:44.826Z,49.03
2019-04-06T17:49:24.165Z,47.93
2019-04-06T17:51:59.675Z,48.47
2019-04-06T17:54:34.075Z,48.43
2019-04-06T17:57:17.891Z,47.30
2019-04-06T17:59:55.279Z,47.70
2019-04-06T18:02:48.737Z,47.13
2019-04-06T18:05:36.096Z,47.30
2019-04-06T18:08:32.248Z,53.33
2019-04-06T18:11:17.285Z,52.93
2019-04-06T18:13:50.067Z,48.73
2019-04-06T18:16:18.876Z,48.07
2019-04-06T18:18:47.394Z,54.80
2019-04-06T18:21:15.813Z,50.37
2019-04-06T18:23:43.930Z,54.33
2019-04-06T18:26:12.054Z,51.70
2019-04-06T18:28:39.975Z,49.97
2019-04-06T18:31:27.565Z,56.50
2019-04-06T18:33:54.780Z,57.53
2019-04-06T18:36:24.906Z,57.93
2019-04-06T18:38:59.685Z,58.77
2019-04-06T18:41:26.905Z,63.20
2019-04-06T18:43:53.839Z,57.30
2019-04-06T18:46:20.727Z,61.50
2019-04-06T18:48:47.636Z,66.53
2019-04-06T18:51:14.540Z,63.37
2019-04-06T18:53:41.593Z,69.17
2019-04-06T18:56:08.580Z,64.80
2019-04-06T18:58:35.525Z,60.33
2019-04-06T19:01:03.366Z,62.70
2019-04-06T19:03:30.422Z,70.40
2019-04-06T19:05:57.959Z,67.17
2019-04-06T19:08:25.005Z,67.97
2019-04-06T19:10:52.641Z,60.77
2019-04-06T19:13:21.572Z,61.33
2019-04-06T19:15:50.173Z,71.40
2019-04-06T19:18:19.113Z,69.27
2019-04-06T19:20:47.605Z,71.13
2019-04-06T19:23:15.525Z,72.53
2019-04-06T19:25:44.291Z,66.80
2019-04-06T19:28:12.564Z,75.43
2019-04-06T19:30:40.909Z,67.77
2019-04-06T19:33:09.269Z,74.80
2019-04-06T19:35:37.192Z,71.83
2019-04-06T19:38:05.357Z,77.90
2019-04-06T19:40:33.553Z,70.63
2019-04-06T19:43:01.543Z,63.60
2019-04-06T19:45:29.495Z,69.20
2019-04-06T19:47:57.413Z,69.10
2019-04-06T19:50:25.922Z,62.30
2019-04-06T19:52:54.165Z,64.60
2019-04-06T19:55:22.875Z,69.80
2019-04-06T19:57:50.941Z,65.83
2019-04-06T20:00:19.395Z,61.60
2019-04-06T20:02:47.605Z,68.97
2019-04-06T20:05:15.766Z,68.67
2019-04-06T20:07:43.689Z,70.47
2019-04-06T20:10:11.862Z,68.40
2019-04-06T20:12:40.263Z,69.90
2019-04-06T20:15:08.776Z,61.80
2019-04-06T20:17:37.408Z,75.20
2019-04-06T20:20:05.780Z,72.63
2019-04-06T20:22:34.130Z,63.00
2019-04-06T20:25:02.682Z,70.60
2019-04-06T20:27:30.882Z,68.37
2019-04-06T20:29:59.281Z,75.47
2019-04-06T20:32:31.303Z,78.50
2019-04-06T20:34:58.406Z,69.70
2019-04-06T20:37:26.369Z,65.67
2019-04-06T20:39:54.923Z,72.07
2019-04-06T20:42:23.602Z,63.07
2019-04-06T20:44:51.629Z,66.63
2019-04-06T20:47:19.970Z,71.57
2019-04-06T20:49:48.016Z,72.47
2019-04-06T20:52:16.144Z,71.43
2019-04-06T20:54:44.174Z,67.83
2019-04-06T20:57:12.170Z,66.70
2019-04-06T20:59:40.444Z,67.73
2019-04-06T21:02:09.310Z,65.80
2019-04-06T21:04:37.470Z,70.57
2019-04-06T21:07:05.541Z,71.00
2019-04-06T21:09:35.560Z,62.63
2019-04-06T21:12:03.579Z,65.07
2019-04-06T21:14:32.533Z,65.73
2019-04-06T21:17:01.361Z,62.20
2019-04-06T21:19:29.394Z,75.73
2019-04-06T21:21:58.804Z,76.63
2019-04-06T21:24:27.354Z,72.80
2019-04-06T21:26:55.418Z,68.63
2019-04-06T21:29:23.495Z,69.43
2019-04-06T21:31:51.892Z,68.50
2019-04-06T21:34:20.455Z,68.20
2019-04-06T21:36:48.410Z,68.00
2019-04-06T21:39:16.493Z,74.50
2019-04-06T21:41:44.955Z,81.63
2019-04-06T21:44:13.050Z,70.57
2019-04-06T21:46:41.380Z,72.70
2019-04-06T21:49:10.029Z,78.93
2019-04-06T21:51:38.240Z,75.83
2019-04-06T21:54:06.723Z,69.83
2019-04-06T21:56:35.709Z,84.93
2019-04-06T21:59:03.870Z,79.03
2019-04-06T22:01:32.522Z,80.90
2019-04-06T22:04:01.305Z,77.37
2019-04-06T22:06:29.452Z,81.43
2019-04-06T22:08:58.118Z,71.83
2019-04-06T22:11:26.578Z,70.20
2019-04-06T22:13:56.820Z,71.57
2019-04-06T22:16:25.637Z,73.70
2019-04-06T22:18:54.447Z,68.60
2019-04-06T22:21:22.845Z,68.63
2019-04-06T22:23:51.490Z,67.37
2019-04-06T22:26:19.879Z,70.53
2019-04-06T22:28:48.072Z,70.53
2019-04-06T22:31:16.475Z,66.50
2019-04-06T22:33:45.631Z,71.20
2019-04-06T22:36:14.150Z,78.10
2019-04-06T22:38:43.362Z,65.47
2019-04-06T22:41:10.762Z,72.83
2019-04-06T22:43:39.174Z,64.10
2019-04-06T22:46:07.909Z,69.50
2019-04-06T22:48:36.787Z,76.37
2019-04-06T22:51:05.638Z,69.03
2019-04-06T22:53:34.746Z,64.57
2019-04-06T22:56:03.233Z,61.97
2019-04-06T22:58:31.153Z,60.20
2019-04-06T23:01:10.714Z,64.07
2019-04-06T23:03:57.401Z,63.33
2019-04-06T23:06:35.417Z,68.50
2019-04-06T23:09:06.195Z,61.07
2019-04-06T23:11:34.453Z,62.23
2019-04-06T23:14:03.049Z,69.40
2019-04-06T23:16:31.617Z,66.17
2019-04-06T23:19:00.364Z,61.03
2019-04-06T23:21:28.635Z,63.33
2019-04-06T23:23:57.036Z,58.50
2019-04-06T23:26:25.327Z,62.00
2019-04-06T23:28:55.000Z,60.57
2019-04-06T23:31:23.822Z,57.43
2019-04-06T23:33:52.116Z,59.60
2019-04-06T23:36:20.818Z,61.23
2019-04-06T23:38:48.811Z,58.90
2019-04-06T23:41:18.423Z,54.93
2019-04-06T23:43:46.968Z,57.27
2019-04-06T23:46:15.228Z,53.10
2019-04-06T23:48:44.115Z,63.20
2019-04-06T23:51:13.182Z,55.17
2019-04-06T23:53:41.399Z,54.10
2019-04-06T23:56:10.136Z,54.27
2019-04-06T23:58:38.353Z,52.57
